sensor_id;sensor_type;location;lat;lon;timestamp;P1;durP1;ratioP1;P2;durP2;ratioP2
49015;SDS011;34830;44.064;12.566;2023-10-09T00:00:19;28.48;;;13.65;;
49015;SDS011;34830;44.064;12.566;2023-10-09T00:03:04;16.65;;;12.07;;
49015;SDS011;34830;44.064;12.566;2023-10-09T00:05:32;14.57;;;10.05;;
49015;SDS011;34830;44.064;12.566;2023-10-09T00:08:14;23.58;;;11.35;;
49015;SDS011;34830;44.064;12.566;2023-10-09T00:10:48;14.23;;;9.52;;
49015;SDS011;34830;44.064;12.566;2023-10-09T00:13:25;23.48;;;9.25;;
49015;SDS011;34830;44.064;12.566;2023-10-09T00:15:56;18.73;;;9.20;;
49015;SDS011;34830;44.064;12.566;2023-10-09T00:18:26;16.35;;;8.82;;
49015;SDS011;34830;44.064;12.566;2023-10-09T00:20:56;17.13;;;8.43;;
49015;SDS011;34830;44.064;12.566;2023-10-09T00:23:27;26.40;;;9.48;;
49015;SDS011;34830;44.064;12.566;2023-10-09T00:25:53;15.15;;;8.82;;
49015;SDS011;34830;44.064;12.566;2023-10-09T00:28:47;15.50;;;9.75;;
49015;SDS011;34830;44.064;12.566;2023-10-09T00:31:13;13.18;;;9.55;;
49015;SDS011;34830;44.064;12.566;2023-10-09T00:33:42;22.67;;;11.45;;
49015;SDS011;34830;44.064;12.566;2023-10-09T00:36:09;20.17;;;10.13;;
49015;SDS011;34830;44.064;12.566;2023-10-09T00:38:36;21.48;;;10.93;;
49015;SDS011;34830;44.064;12.566;2023-10-09T00:41:05;15.80;;;10.65;;
49015;SDS011;34830;44.064;12.566;2023-10-09T00:43:34;15.68;;;10.45;;
49015;SDS011;34830;44.064;12.566;2023-10-09T00:46:02;15.27;;;10.43;;
49015;SDS011;34830;44.064;12.566;2023-10-09T00:48:35;17.95;;;9.98;;
49015;SDS011;34830;44.064;12.566;2023-10-09T00:51:07;13.98;;;9.35;;
49015;SDS011;34830;44.064;12.566;2023-10-09T00:53:57;14.13;;;9.50;;
49015;SDS011;34830;44.064;12.566;2023-10-09T00:56:33;17.23;;;9.68;;
49015;SDS011;34830;44.064;12.566;2023-10-09T00:59:13;12.13;;;9.30;;
49015;SDS011;34830;44.064;12.566;2023-10-09T01:01:42;13.32;;;8.25;;
49015;SDS011;34830;44.064;12.566;2023-10-09T01:04:27;15.82;;;9.70;;
49015;SDS011;34830;44.064;12.566;2023-10-09T01:06:55;14.57;;;9.75;;
49015;SDS011;34830;44.064;12.566;2023-10-09T01:09:42;14.43;;;8.52;;
49015;SDS011;34830;44.064;12.566;2023-10-09T01:12:11;23.23;;;10.35;;
49015;SDS011;34830;44.064;12.566;2023-10-09T01:14:43;26.92;;;12.07;;
49015;SDS011;34830;44.064;12.566;2023-10-09T01:17:10;27.15;;;11.90;;
49015;SDS011;34830;44.064;12.566;2023-10-09T01:19:37;24.88;;;11.23;;
49015;SDS011;34830;44.064;12.566;2023-10-09T01:22:09;20.77;;;10.65;;
49015;SDS011;34830;44.064;12.566;2023-10-09T01:24:39;28.25;;;11.40;;
49015;SDS011;34830;44.064;12.566;2023-10-09T01:27:05;26.02;;;11.70;;
49015;SDS011;34830;44.064;12.566;2023-10-09T01:29:38;20.98;;;9.93;;
49015;SDS011;34830;44.064;12.566;2023-10-09T01:32:07;24.50;;;9.60;;
49015;SDS011;34830;44.064;12.566;2023-10-09T01:34:42;19.90;;;9.15;;
49015;SDS011;34830;44.064;12.566;2023-10-09T01:37:13;18.88;;;9.00;;
49015;SDS011;34830;44.064;12.566;2023-10-09T01:40:02;19.50;;;8.90;;
49015;SDS011;34830;44.064;12.566;2023-10-09T01:42:47;15.73;;;8.63;;
49015;SDS011;34830;44.064;12.566;2023-10-09T01:45:13;16.63;;;8.10;;
49015;SDS011;34830;44.064;12.566;2023-10-09T01:47:40;16.73;;;9.02;;
49015;SDS011;34830;44.064;12.566;2023-10-09T01:50:06;16.75;;;8.40;;
49015;SDS011;34830;44.064;12.566;2023-10-09T01:52:45;11.50;;;7.82;;
49015;SDS011;34830;44.064;12.566;2023-10-09T01:55:12;20.77;;;7.20;;
49015;SDS011;34830;44.064;12.566;2023-10-09T01:57:56;17.35;;;8.07;;
49015;SDS011;34830;44.064;12.566;2023-10-09T02:00:31;16.95;;;6.82;;
49015;SDS011;34830;44.064;12.566;2023-10-09T02:03:08;11.05;;;6.95;;
49015;SDS011;34830;44.064;12.566;2023-10-09T02:05:38;14.77;;;6.67;;
49015;SDS011;34830;44.064;12.566;2023-10-09T02:08:05;15.20;;;8.15;;
49015;SDS011;34830;44.064;12.566;2023-10-09T02:10:32;17.13;;;7.43;;
49015;SDS011;34830;44.064;12.566;2023-10-09T02:13:04;15.68;;;6.85;;
49015;SDS011;34830;44.064;12.566;2023-10-09T02:15:36;16.55;;;7.00;;
49015;SDS011;34830;44.064;12.566;2023-10-09T02:18:10;14.23;;;6.95;;
49015;SDS011;34830;44.064;12.566;2023-10-09T02:21:06;16.75;;;6.88;;
49015;SDS011;34830;44.064;12.566;2023-10-09T02:23:33;10.75;;;5.90;;
49015;SDS011;34830;44.064;12.566;2023-10-09T02:26:11;16.52;;;6.40;;
49015;SDS011;34830;44.064;12.566;2023-10-09T02:28:54;12.25;;;6.80;;
49015;SDS011;34830;44.064;12.566;2023-10-09T02:31:39;13.23;;;6.40;;
49015;SDS011;34830;44.064;12.566;2023-10-09T02:34:06;13.20;;;7.40;;
49015;SDS011;34830;44.064;12.566;2023-10-09T02:36:36;13.98;;;7.10;;
49015;SDS011;34830;44.064;12.566;2023-10-09T02:39:15;16.20;;;7.40;;
49015;SDS011;34830;44.064;12.566;2023-10-09T02:41:57;17.30;;;7.72;;
49015;SDS011;34830;44.064;12.566;2023-10-09T02:44:46;13.63;;;7.35;;
49015;SDS011;34830;44.064;12.566;2023-10-09T02:47:15;13.43;;;7.22;;
49015;SDS011;34830;44.064;12.566;2023-10-09T02:49:55;12.20;;;7.22;;
49015;SDS011;34830;44.064;12.566;2023-10-09T02:52:32;15.13;;;6.65;;
49015;SDS011;34830;44.064;12.566;2023-10-09T02:55:06;13.60;;;6.85;;
49015;SDS011;34830;44.064;12.566;2023-10-09T02:57:38;12.07;;;6.57;;
49015;SDS011;34830;44.064;12.566;2023-10-09T03:00:07;13.68;;;7.15;;
49015;SDS011;34830;44.064;12.566;2023-10-09T03:02:45;14.77;;;7.13;;
49015;SDS011;34830;44.064;12.566;2023-10-09T03:05:15;12.77;;;6.43;;
49015;SDS011;34830;44.064;12.566;2023-10-09T03:07:42;14.13;;;6.80;;
49015;SDS011;34830;44.064;12.566;2023-10-09T03:10:09;15.18;;;7.18;;
49015;SDS011;34830;44.064;12.566;2023-10-09T03:12:35;15.52;;;8.00;;
49015;SDS011;34830;44.064;12.566;2023-10-09T03:15:02;12.38;;;7.30;;
49015;SDS011;34830;44.064;12.566;2023-10-09T03:17:31;12.27;;;6.45;;
49015;SDS011;34830;44.064;12.566;2023-10-09T03:20:06;13.77;;;7.28;;
49015;SDS011;34830;44.064;12.566;2023-10-09T03:22:40;18.75;;;6.45;;
49015;SDS011;34830;44.064;12.566;2023-10-09T03:25:06;14.05;;;7.18;;
49015;SDS011;34830;44.064;12.566;2023-10-09T03:27:43;11.77;;;6.68;;
49015;SDS011;34830;44.064;12.566;2023-10-09T03:30:13;14.68;;;6.82;;
49015;SDS011;34830;44.064;12.566;2023-10-09T03:32:48;13.20;;;7.10;;
49015;SDS011;34830;44.064;12.566;2023-10-09T03:35:17;14.48;;;6.50;;
49015;SDS011;34830;44.064;12.566;2023-10-09T03:37:54;11.73;;;5.57;;
49015;SDS011;34830;44.064;12.566;2023-10-09T03:40:26;12.27;;;6.45;;
49015;SDS011;34830;44.064;12.566;2023-10-09T03:42:53;13.57;;;6.50;;
49015;SDS011;34830;44.064;12.566;2023-10-09T03:45:22;13.65;;;7.57;;
49015;SDS011;34830;44.064;12.566;2023-10-09T03:47:55;13.35;;;6.45;;
49015;SDS011;34830;44.064;12.566;2023-10-09T03:50:42;13.02;;;6.65;;
49015;SDS011;34830;44.064;12.566;2023-10-09T03:53:09;14.80;;;7.00;;
49015;SDS011;34830;44.064;12.566;2023-10-09T03:55:38;11.85;;;6.35;;
49015;SDS011;34830;44.064;12.566;2023-10-09T03:58:05;12.48;;;6.55;;
49015;SDS011;34830;44.064;12.566;2023-10-09T04:00:32;13.50;;;6.57;;
49015;SDS011;34830;44.064;12.566;2023-10-09T04:03:06;15.75;;;6.95;;
49015;SDS011;34830;44.064;12.566;2023-10-09T04:05:32;15.75;;;6.55;;
49015;SDS011;34830;44.064;12.566;2023-10-09T04:07:58;11.25;;;6.00;;
49015;SDS011;34830;44.064;12.566;2023-10-09T04:10:28;9.63;;;5.50;;
49015;SDS011;34830;44.064;12.566;2023-10-09T04:13:10;9.57;;;5.80;;
49015;SDS011;34830;44.064;12.566;2023-10-09T04:15:42;15.60;;;5.95;;
49015;SDS011;34830;44.064;12.566;2023-10-09T04:18:08;13.10;;;5.70;;
49015;SDS011;34830;44.064;12.566;2023-10-09T04:20:41;18.50;;;5.68;;
49015;SDS011;34830;44.064;12.566;2023-10-09T04:23:10;11.02;;;4.93;;
49015;SDS011;34830;44.064;12.566;2023-10-09T04:25:41;10.82;;;5.35;;
49015;SDS011;34830;44.064;12.566;2023-10-09T04:28:08;12.55;;;6.20;;
49015;SDS011;34830;44.064;12.566;2023-10-09T04:30:36;12.52;;;6.30;;
49015;SDS011;34830;44.064;12.566;2023-10-09T04:33:06;10.07;;;6.00;;
49015;SDS011;34830;44.064;12.566;2023-10-09T04:38:04;11.63;;;5.60;;
49015;SDS011;34830;44.064;12.566;2023-10-09T04:40:32;11.45;;;5.70;;
49015;SDS011;34830;44.064;12.566;2023-10-09T04:43:17;12.80;;;5.07;;
49015;SDS011;34830;44.064;12.566;2023-10-09T04:45:50;15.02;;;4.85;;
49015;SDS011;34830;44.064;12.566;2023-10-09T04:48:33;15.60;;;5.03;;
49015;SDS011;34830;44.064;12.566;2023-10-09T04:51:06;16.75;;;5.53;;
49015;SDS011;34830;44.064;12.566;2023-10-09T04:54:00;17.17;;;5.30;;
49015;SDS011;34830;44.064;12.566;2023-10-09T04:56:39;16.55;;;4.85;;
49015;SDS011;34830;44.064;12.566;2023-10-09T04:59:26;18.85;;;4.55;;
49015;SDS011;34830;44.064;12.566;2023-10-09T05:01:52;14.88;;;4.72;;
49015;SDS011;34830;44.064;12.566;2023-10-09T05:04:25;15.30;;;4.88;;
49015;SDS011;34830;44.064;12.566;2023-10-09T05:07:13;15.48;;;4.35;;
49015;SDS011;34830;44.064;12.566;2023-10-09T05:10:11;12.23;;;4.40;;
49015;SDS011;34830;44.064;12.566;2023-10-09T05:12:44;12.10;;;3.95;;
49015;SDS011;34830;44.064;12.566;2023-10-09T05:15:25;11.43;;;3.83;;
49015;SDS011;34830;44.064;12.566;2023-10-09T05:17:56;15.45;;;3.83;;
49015;SDS011;34830;44.064;12.566;2023-10-09T05:20:23;21.23;;;4.60;;
49015;SDS011;34830;44.064;12.566;2023-10-09T05:22:52;13.68;;;4.65;;
49015;SDS011;34830;44.064;12.566;2023-10-09T05:25:24;12.45;;;4.10;;
49015;SDS011;34830;44.064;12.566;2023-10-09T05:28:09;16.10;;;4.45;;
49015;SDS011;34830;44.064;12.566;2023-10-09T05:30:51;11.50;;;4.18;;
49015;SDS011;34830;44.064;12.566;2023-10-09T05:33:38;13.35;;;4.80;;
49015;SDS011;34830;44.064;12.566;2023-10-09T05:36:04;15.00;;;4.43;;
49015;SDS011;34830;44.064;12.566;2023-10-09T05:38:51;15.98;;;5.15;;
49015;SDS011;34830;44.064;12.566;2023-10-09T05:41:36;13.77;;;4.35;;
49015;SDS011;34830;44.064;12.566;2023-10-09T05:44:17;11.60;;;4.00;;
49015;SDS011;34830;44.064;12.566;2023-10-09T05:47:02;14.05;;;4.55;;
49015;SDS011;34830;44.064;12.566;2023-10-09T05:49:47;14.60;;;5.78;;
49015;SDS011;34830;44.064;12.566;2023-10-09T05:52:23;22.35;;;5.82;;
49015;SDS011;34830;44.064;12.566;2023-10-09T05:54:58;18.23;;;4.78;;
49015;SDS011;34830;44.064;12.566;2023-10-09T05:57:54;15.13;;;4.95;;
49015;SDS011;34830;44.064;12.566;2023-10-09T06:00:39;17.15;;;4.85;;
49015;SDS011;34830;44.064;12.566;2023-10-09T06:03:24;13.32;;;5.18;;
49015;SDS011;34830;44.064;12.566;2023-10-09T06:06:11;13.43;;;4.82;;
49015;SDS011;34830;44.064;12.566;2023-10-09T06:08:44;14.85;;;4.53;;
49015;SDS011;34830;44.064;12.566;2023-10-09T06:11:10;17.13;;;5.28;;
49015;SDS011;34830;44.064;12.566;2023-10-09T06:13:56;24.67;;;6.97;;
49015;SDS011;34830;44.064;12.566;2023-10-09T06:16:36;21.00;;;6.57;;
49015;SDS011;34830;44.064;12.566;2023-10-09T06:19:10;19.23;;;5.60;;
49015;SDS011;34830;44.064;12.566;2023-10-09T06:21:46;14.05;;;5.20;;
49015;SDS011;34830;44.064;12.566;2023-10-09T06:24:22;14.43;;;5.10;;
49015;SDS011;34830;44.064;12.566;2023-10-09T06:26:49;21.20;;;5.72;;
49015;SDS011;34830;44.064;12.566;2023-10-09T06:29:25;14.27;;;5.55;;
49015;SDS011;34830;44.064;12.566;2023-10-09T06:32:01;17.35;;;5.60;;
49015;SDS011;34830;44.064;12.566;2023-10-09T06:34:50;27.20;;;6.53;;
49015;SDS011;34830;44.064;12.566;2023-10-09T06:37:18;21.48;;;6.32;;
49015;SDS011;34830;44.064;12.566;2023-10-09T06:42:16;20.27;;;5.85;;
49015;SDS011;34830;44.064;12.566;2023-10-09T06:45:03;18.10;;;6.20;;
49015;SDS011;34830;44.064;12.566;2023-10-09T06:47:50;17.48;;;5.82;;
49015;SDS011;34830;44.064;12.566;2023-10-09T06:52:48;20.40;;;7.18;;
49015;SDS011;34830;44.064;12.566;2023-10-09T06:55:26;25.80;;;7.00;;
49015;SDS011;34830;44.064;12.566;2023-10-09T06:58:00;18.30;;;7.25;;
49015;SDS011;34830;44.064;12.566;2023-10-09T07:00:41;15.73;;;5.82;;
49015;SDS011;34830;44.064;12.566;2023-10-09T07:03:25;26.48;;;6.78;;
49015;SDS011;34830;44.064;12.566;2023-10-09T07:06:08;30.25;;;8.02;;
49015;SDS011;34830;44.064;12.566;2023-10-09T07:08:50;27.83;;;7.10;;
49015;SDS011;34830;44.064;12.566;2023-10-09T07:11:36;23.17;;;6.85;;
49015;SDS011;34830;44.064;12.566;2023-10-09T07:17:00;22.25;;;6.47;;
49015;SDS011;34830;44.064;12.566;2023-10-09T07:19:28;16.25;;;5.28;;
49015;SDS011;34830;44.064;12.566;2023-10-09T07:22:00;20.02;;;5.72;;
49015;SDS011;34830;44.064;12.566;2023-10-09T07:24:32;18.40;;;4.93;;
49015;SDS011;34830;44.064;12.566;2023-10-09T07:27:09;21.73;;;6.30;;
49015;SDS011;34830;44.064;12.566;2023-10-09T07:29:37;18.40;;;5.93;;
49015;SDS011;34830;44.064;12.566;2023-10-09T07:32:16;16.52;;;5.78;;
49015;SDS011;34830;44.064;12.566;2023-10-09T07:34:46;21.33;;;6.10;;
49015;SDS011;34830;44.064;12.566;2023-10-09T07:37:19;18.48;;;5.80;;
49015;SDS011;34830;44.064;12.566;2023-10-09T07:39:49;16.02;;;6.78;;
49015;SDS011;34830;44.064;12.566;2023-10-09T07:42:25;18.25;;;5.72;;
49015;SDS011;34830;44.064;12.566;2023-10-09T07:45:15;16.75;;;5.63;;
49015;SDS011;34830;44.064;12.566;2023-10-09T07:47:48;18.70;;;4.78;;
49015;SDS011;34830;44.064;12.566;2023-10-09T07:50:36;23.08;;;5.68;;
49015;SDS011;34830;44.064;12.566;2023-10-09T07:53:07;20.40;;;5.90;;
49015;SDS011;34830;44.064;12.566;2023-10-09T07:55:52;26.70;;;7.53;;
49015;SDS011;34830;44.064;12.566;2023-10-09T07:58:32;19.48;;;5.22;;
49015;SDS011;34830;44.064;12.566;2023-10-09T08:01:12;15.90;;;4.93;;
49015;SDS011;34830;44.064;12.566;2023-10-09T08:03:42;19.73;;;8.07;;
49015;SDS011;34830;44.064;12.566;2023-10-09T08:06:12;25.65;;;5.72;;
49015;SDS011;34830;44.064;12.566;2023-10-09T08:08:57;26.70;;;5.72;;
49015;SDS011;34830;44.064;12.566;2023-10-09T08:11:32;16.15;;;5.50;;
49015;SDS011;34830;44.064;12.566;2023-10-09T08:14:20;22.63;;;5.65;;
49015;SDS011;34830;44.064;12.566;2023-10-09T08:17:06;22.40;;;6.72;;
49015;SDS011;34830;44.064;12.566;2023-10-09T08:19:46;26.48;;;6.93;;
49015;SDS011;34830;44.064;12.566;2023-10-09T08:22:29;20.65;;;6.85;;
49015;SDS011;34830;44.064;12.566;2023-10-09T08:24:56;17.10;;;5.07;;
49015;SDS011;34830;44.064;12.566;2023-10-09T08:30:02;27.15;;;7.32;;
49015;SDS011;34830;44.064;12.566;2023-10-09T08:32:48;31.70;;;6.20;;
49015;SDS011;34830;44.064;12.566;2023-10-09T08:38:01;14.10;;;5.55;;
49015;SDS011;34830;44.064;12.566;2023-10-09T08:40:34;17.02;;;5.38;;
49015;SDS011;34830;44.064;12.566;2023-10-09T08:45:45;14.52;;;5.22;;
49015;SDS011;34830;44.064;12.566;2023-10-09T08:48:27;16.50;;;5.65;;
49015;SDS011;34830;44.064;12.566;2023-10-09T08:50:55;15.48;;;4.30;;
49015;SDS011;34830;44.064;12.566;2023-10-09T08:53:22;16.27;;;4.10;;
49015;SDS011;34830;44.064;12.566;2023-10-09T08:55:58;19.58;;;5.05;;
49015;SDS011;34830;44.064;12.566;2023-10-09T08:58:25;11.95;;;4.38;;
49015;SDS011;34830;44.064;12.566;2023-10-09T09:00:58;13.32;;;4.13;;
49015;SDS011;34830;44.064;12.566;2023-10-09T09:03:27;15.23;;;4.43;;
49015;SDS011;34830;44.064;12.566;2023-10-09T09:06:03;18.75;;;5.53;;
49015;SDS011;34830;44.064;12.566;2023-10-09T09:08:31;9.52;;;4.38;;
49015;SDS011;34830;44.064;12.566;2023-10-09T09:11:09;12.98;;;5.75;;
49015;SDS011;34830;44.064;12.566;2023-10-09T09:13:39;17.80;;;5.50;;
49015;SDS011;34830;44.064;12.566;2023-10-09T09:16:18;16.63;;;5.03;;
49015;SDS011;34830;44.064;12.566;2023-10-09T09:18:59;12.68;;;4.03;;
49015;SDS011;34830;44.064;12.566;2023-10-09T09:21:49;11.57;;;4.93;;
49015;SDS011;34830;44.064;12.566;2023-10-09T09:24:20;15.38;;;4.22;;
49015;SDS011;34830;44.064;12.566;2023-10-09T09:26:49;12.43;;;3.72;;
49015;SDS011;34830;44.064;12.566;2023-10-09T09:32:05;16.70;;;4.47;;
49015;SDS011;34830;44.064;12.566;2023-10-09T09:37:20;11.23;;;4.00;;
49015;SDS011;34830;44.064;12.566;2023-10-09T09:39:57;9.98;;;3.90;;
49015;SDS011;34830;44.064;12.566;2023-10-09T09:42:27;16.80;;;5.20;;
49015;SDS011;34830;44.064;12.566;2023-10-09T09:44:56;12.63;;;5.53;;
49015;SDS011;34830;44.064;12.566;2023-10-09T09:47:24;11.93;;;4.57;;
49015;SDS011;34830;44.064;12.566;2023-10-09T09:49:54;10.05;;;4.07;;
49015;SDS011;34830;44.064;12.566;2023-10-09T09:52:28;10.52;;;4.45;;
49015;SDS011;34830;44.064;12.566;2023-10-09T09:54:54;14.88;;;4.57;;
49015;SDS011;34830;44.064;12.566;2023-10-09T09:57:23;12.38;;;4.90;;
49015;SDS011;34830;44.064;12.566;2023-10-09T09:59:52;11.88;;;5.03;;
49015;SDS011;34830;44.064;12.566;2023-10-09T10:02:29;15.63;;;4.85;;
49015;SDS011;34830;44.064;12.566;2023-10-09T10:04:59;25.85;;;5.38;;
49015;SDS011;34830;44.064;12.566;2023-10-09T10:07:29;16.27;;;5.10;;
49015;SDS011;34830;44.064;12.566;2023-10-09T10:09:57;15.07;;;5.20;;
49015;SDS011;34830;44.064;12.566;2023-10-09T10:19:04;13.73;;;4.85;;
49015;SDS011;34830;44.064;12.566;2023-10-09T10:21:47;13.18;;;4.95;;
49015;SDS011;34830;44.064;12.566;2023-10-09T10:29:44;14.32;;;4.90;;
49015;SDS011;34830;44.064;12.566;2023-10-09T10:32:12;9.88;;;4.75;;
49015;SDS011;34830;44.064;12.566;2023-10-09T10:34:53;11.00;;;4.35;;
49015;SDS011;34830;44.064;12.566;2023-10-09T10:40:09;15.48;;;4.00;;
49015;SDS011;34830;44.064;12.566;2023-10-09T10:42:58;13.55;;;3.58;;
49015;SDS011;34830;44.064;12.566;2023-10-09T10:46:08;10.23;;;4.15;;
49015;SDS011;34830;44.064;12.566;2023-10-09T10:48:55;10.95;;;4.47;;
49015;SDS011;34830;44.064;12.566;2023-10-09T10:51:29;12.38;;;4.13;;
49015;SDS011;34830;44.064;12.566;2023-10-09T10:54:04;10.50;;;5.00;;
49015;SDS011;34830;44.064;12.566;2023-10-09T10:56:50;24.50;;;4.72;;
49015;SDS011;34830;44.064;12.566;2023-10-09T10:59:18;13.88;;;4.18;;
49015;SDS011;34830;44.064;12.566;2023-10-09T11:01:54;16.48;;;4.45;;
49015;SDS011;34830;44.064;12.566;2023-10-09T11:04:29;15.27;;;4.82;;
49015;SDS011;34830;44.064;12.566;2023-10-09T11:06:56;12.75;;;4.30;;
49015;SDS011;34830;44.064;12.566;2023-10-09T11:12:44;12.13;;;4.70;;
49015;SDS011;34830;44.064;12.566;2023-10-09T11:15:32;12.85;;;4.78;;
49015;SDS011;34830;44.064;12.566;2023-10-09T11:18:11;17.15;;;4.30;;
49015;SDS011;34830;44.064;12.566;2023-10-09T11:20:57;11.73;;;4.03;;
49015;SDS011;34830;44.064;12.566;2023-10-09T11:23:32;10.55;;;4.82;;
49015;SDS011;34830;44.064;12.566;2023-10-09T11:25:59;15.07;;;4.32;;
49015;SDS011;34830;44.064;12.566;2023-10-09T11:28:43;8.25;;;4.05;;
49015;SDS011;34830;44.064;12.566;2023-10-09T11:31:22;12.73;;;4.28;;
49015;SDS011;34830;44.064;12.566;2023-10-09T11:33:50;9.15;;;3.67;;
49015;SDS011;34830;44.064;12.566;2023-10-09T11:36:20;16.02;;;4.32;;
49015;SDS011;34830;44.064;12.566;2023-10-09T11:38:57;15.60;;;4.43;;
49015;SDS011;34830;44.064;12.566;2023-10-09T11:41:47;15.23;;;5.63;;
49015;SDS011;34830;44.064;12.566;2023-10-09T11:44:15;13.48;;;4.93;;
49015;SDS011;34830;44.064;12.566;2023-10-09T11:47:00;15.55;;;4.70;;
49015;SDS011;34830;44.064;12.566;2023-10-09T11:49:51;16.70;;;4.85;;
49015;SDS011;34830;44.064;12.566;2023-10-09T11:52:30;14.15;;;4.15;;
49015;SDS011;34830;44.064;12.566;2023-10-09T11:55:02;15.90;;;4.30;;
49015;SDS011;34830;44.064;12.566;2023-10-09T11:57:28;15.23;;;4.38;;
49015;SDS011;34830;44.064;12.566;2023-10-09T11:59:59;14.07;;;4.30;;
49015;SDS011;34830;44.064;12.566;2023-10-09T12:02:26;25.05;;;12.25;;
49015;SDS011;34830;44.064;12.566;2023-10-09T12:04:53;32.15;;;22.05;;
49015;SDS011;34830;44.064;12.566;2023-10-09T12:07:23;13.10;;;5.10;;
49015;SDS011;34830;44.064;12.566;2023-10-09T12:09:51;11.68;;;4.53;;
49015;SDS011;34830;44.064;12.566;2023-10-09T12:12:22;19.58;;;4.85;;
49015;SDS011;34830;44.064;12.566;2023-10-09T12:14:52;12.05;;;3.92;;
49015;SDS011;34830;44.064;12.566;2023-10-09T12:17:18;12.25;;;3.78;;
49015;SDS011;34830;44.064;12.566;2023-10-09T12:19:45;14.52;;;3.92;;
49015;SDS011;34830;44.064;12.566;2023-10-09T12:22:11;15.25;;;4.93;;
49015;SDS011;34830;44.064;12.566;2023-10-09T12:24:41;10.27;;;4.05;;
49015;SDS011;34830;44.064;12.566;2023-10-09T12:27:11;16.35;;;5.38;;
49015;SDS011;34830;44.064;12.566;2023-10-09T12:29:37;10.38;;;3.90;;
49015;SDS011;34830;44.064;12.566;2023-10-09T12:32:04;21.52;;;5.15;;
49015;SDS011;34830;44.064;12.566;2023-10-09T12:34:36;13.63;;;4.07;;
49015;SDS011;34830;44.064;12.566;2023-10-09T12:37:03;13.95;;;3.95;;
49015;SDS011;34830;44.064;12.566;2023-10-09T12:39:30;13.18;;;4.18;;
49015;SDS011;34830;44.064;12.566;2023-10-09T12:41:59;16.05;;;4.25;;
49015;SDS011;34830;44.064;12.566;2023-10-09T12:44:35;13.15;;;5.03;;
49015;SDS011;34830;44.064;12.566;2023-10-09T12:47:08;17.40;;;4.40;;
49015;SDS011;34830;44.064;12.566;2023-10-09T12:49:37;14.15;;;4.80;;
49015;SDS011;34830;44.064;12.566;2023-10-09T12:52:07;15.27;;;4.78;;
49015;SDS011;34830;44.064;12.566;2023-10-09T12:54:44;15.43;;;5.00;;
49015;SDS011;34830;44.064;12.566;2023-10-09T12:57:13;12.88;;;5.07;;
49015;SDS011;34830;44.064;12.566;2023-10-09T12:59:40;19.45;;;5.43;;
49015;SDS011;34830;44.064;12.566;2023-10-09T13:02:14;18.40;;;4.10;;
49015;SDS011;34830;44.064;12.566;2023-10-09T13:04:54;11.80;;;4.07;;
49015;SDS011;34830;44.064;12.566;2023-10-09T13:07:21;12.43;;;4.93;;
49015;SDS011;34830;44.064;12.566;2023-10-09T13:09:48;14.38;;;5.38;;
49015;SDS011;34830;44.064;12.566;2023-10-09T13:12:33;17.38;;;5.50;;
49015;SDS011;34830;44.064;12.566;2023-10-09T13:14:59;19.13;;;5.22;;
49015;SDS011;34830;44.064;12.566;2023-10-09T13:17:26;13.30;;;5.63;;
49015;SDS011;34830;44.064;12.566;2023-10-09T13:19:53;12.73;;;5.10;;
49015;SDS011;34830;44.064;12.566;2023-10-09T13:22:20;14.73;;;5.35;;
49015;SDS011;34830;44.064;12.566;2023-10-09T13:24:48;14.57;;;4.60;;
49015;SDS011;34830;44.064;12.566;2023-10-09T13:27:15;12.48;;;5.43;;
49015;SDS011;34830;44.064;12.566;2023-10-09T13:29:47;12.13;;;5.38;;
49015;SDS011;34830;44.064;12.566;2023-10-09T13:32:13;14.68;;;4.30;;
49015;SDS011;34830;44.064;12.566;2023-10-09T13:34:40;16.00;;;5.57;;
49015;SDS011;34830;44.064;12.566;2023-10-09T13:37:14;12.00;;;5.00;;
49015;SDS011;34830;44.064;12.566;2023-10-09T13:39:47;12.75;;;5.03;;
49015;SDS011;34830;44.064;12.566;2023-10-09T13:42:19;14.82;;;4.65;;
49015;SDS011;34830;44.064;12.566;2023-10-09T13:44:50;17.70;;;5.95;;
49015;SDS011;34830;44.064;12.566;2023-10-09T13:47:19;12.68;;;5.03;;
49015;SDS011;34830;44.064;12.566;2023-10-09T13:49:47;16.70;;;6.25;;
49015;SDS011;34830;44.064;12.566;2023-10-09T13:52:17;11.05;;;4.85;;
49015;SDS011;34830;44.064;12.566;2023-10-09T13:54:44;17.30;;;6.18;;
49015;SDS011;34830;44.064;12.566;2023-10-09T13:57:15;16.08;;;5.90;;
49015;SDS011;34830;44.064;12.566;2023-10-09T13:59:42;16.98;;;5.40;;
49015;SDS011;34830;44.064;12.566;2023-10-09T14:02:15;12.98;;;5.82;;
49015;SDS011;34830;44.064;12.566;2023-10-09T14:04:45;17.05;;;6.43;;
49015;SDS011;34830;44.064;12.566;2023-10-09T14:07:12;13.85;;;5.25;;
49015;SDS011;34830;44.064;12.566;2023-10-09T14:09:43;16.77;;;5.60;;
49015;SDS011;34830;44.064;12.566;2023-10-09T14:12:09;19.15;;;5.53;;
49015;SDS011;34830;44.064;12.566;2023-10-09T14:14:37;14.95;;;5.90;;
49015;SDS011;34830;44.064;12.566;2023-10-09T14:17:05;16.75;;;5.65;;
49015;SDS011;34830;44.064;12.566;2023-10-09T14:19:40;15.50;;;6.07;;
49015;SDS011;34830;44.064;12.566;2023-10-09T14:22:12;17.77;;;5.70;;
49015;SDS011;34830;44.064;12.566;2023-10-09T14:24:41;13.63;;;5.15;;
49015;SDS011;34830;44.064;12.566;2023-10-09T14:27:11;14.77;;;4.53;;
49015;SDS011;34830;44.064;12.566;2023-10-09T14:29:46;15.63;;;5.15;;
49015;SDS011;34830;44.064;12.566;2023-10-09T14:32:14;14.83;;;5.23;;
49015;SDS011;34830;44.064;12.566;2023-10-09T14:34:40;12.07;;;4.93;;
49015;SDS011;34830;44.064;12.566;2023-10-09T14:37:19;18.30;;;6.20;;
49015;SDS011;34830;44.064;12.566;2023-10-09T14:39:46;14.13;;;5.28;;
49015;SDS011;34830;44.064;12.566;2023-10-09T14:42:16;12.52;;;5.60;;
49015;SDS011;34830;44.064;12.566;2023-10-09T14:44:48;16.02;;;5.20;;
49015;SDS011;34830;44.064;12.566;2023-10-09T14:47:15;16.33;;;6.07;;
49015;SDS011;34830;44.064;12.566;2023-10-09T14:49:47;12.73;;;5.70;;
49015;SDS011;34830;44.064;12.566;2023-10-09T14:52:14;13.18;;;5.25;;
49015;SDS011;34830;44.064;12.566;2023-10-09T14:54:42;19.95;;;6.65;;
49015;SDS011;34830;44.064;12.566;2023-10-09T14:57:10;20.55;;;7.65;;
49015;SDS011;34830;44.064;12.566;2023-10-09T14:59:37;18.50;;;7.15;;
49015;SDS011;34830;44.064;12.566;2023-10-09T15:02:04;13.52;;;6.32;;
49015;SDS011;34830;44.064;12.566;2023-10-09T15:04:33;12.45;;;5.82;;
49015;SDS011;34830;44.064;12.566;2023-10-09T15:07:03;15.68;;;6.80;;
49015;SDS011;34830;44.064;12.566;2023-10-09T15:09:36;11.70;;;5.20;;
49015;SDS011;34830;44.064;12.566;2023-10-09T15:12:02;10.95;;;6.05;;
49015;SDS011;34830;44.064;12.566;2023-10-09T15:14:32;17.38;;;6.18;;
49015;SDS011;34830;44.064;12.566;2023-10-09T15:16:59;18.40;;;7.20;;
49015;SDS011;34830;44.064;12.566;2023-10-09T15:19:25;11.05;;;5.57;;
49015;SDS011;34830;44.064;12.566;2023-10-09T15:21:55;14.52;;;6.63;;
49015;SDS011;34830;44.064;12.566;2023-10-09T15:24:22;19.58;;;6.28;;
49015;SDS011;34830;44.064;12.566;2023-10-09T15:26:48;18.80;;;6.80;;
49015;SDS011;34830;44.064;12.566;2023-10-09T15:29:18;15.00;;;6.57;;
49015;SDS011;34830;44.064;12.566;2023-10-09T15:31:46;15.70;;;7.85;;
49015;SDS011;34830;44.064;12.566;2023-10-09T15:34:12;21.70;;;7.05;;
49015;SDS011;34830;44.064;12.566;2023-10-09T15:36:38;18.60;;;6.47;;
49015;SDS011;34830;44.064;12.566;2023-10-09T15:39:06;16.92;;;6.30;;